Samoa, California
Current Conditions -  °F | °C
As of 5:53 AM on Thursday 23 Oct 2014 (Local Time) from KACV Reporting Station
Light Rain Light Rain  
Wind Chill: 60°   Ceiling: 2900
Heat Index: 60°   Visibility: 7mi
Dew Point: 58°   Wind: 5mph
Humidity: 93%   Direction: NA
Pressure: 29.9"   Gusts: NA
Location:  40.82°N, 124.19°W
Report Text: KACV 231253Z AUTO VRB04KT 7SM -RA OVC029 16/14 A2990 RMK AO2 SLP130 P0004 T01560144
Loading
Personal Weather Stations






























Interactive Weather Map
Tropical Storm Tracking
New forecast layout! Learn more

10-Day Weather Forecast

Advertisements
Track Severe Weather on mobile